Terminal Aerodrome Forecast
Issued by NWS Brownsville, TX

Home | Current Version | Previous Version | Text Only | Print | Product List | Glossary On
Versions: 1 2 3 4 5 6 7 8 9 10 11 12 13 14 15 16 17
000
FTUS44 KBRO 031739
TAFBRO
TAF
KBRO 031739Z 0318/0418 16005KT P6SM VCSH FEW035 BKN060 BKN080
     FM040000 15008KT P6SM SCT250
     FM041500 16012KT P6SM VCSH SCT030 BKN040=

USA.gov is the U.S. government's official web portal to all federal, state and local government web resources and services.